x

Portland 12 Nm Southeast Of Portland,me (44007) Wave Buoy

1:50am - Mon 29th Dec 2014 All times are EST. -5 hours from GMT.

  • Sig Wave height 1.0ft
  • Swell Direction
  • Peak Period 12s
  • Average Period 4s
  • Wind
    13mph, 18mph gusts
  • Sea Temp 43°f
  • 空気 Temp 39°f
  • Sea Pressure 1014.8mb
  • Portland 12 Nm Southeast Of Portland,me
  • Portland 12 Nm Southeast Of Portland,me

More Historic Weather Station data

Upgrade to MSW Pro to gain access to the past 30 days of data for over 8000 Wavebouys and Weather Stations around the globe.

Join Pro

Comparision Forecast

View Surf forecast
   
Mon 12/29 1:50am 1ft 12s 4s 13 18 mph 1014.8mb 43f 39f
12:50am 1.3ft 12s 4s 13 16 mph 1013.9mb 43f 41f
Sun 12/28 11:50pm 1.6ft 12s 5s 11 13 mph 1013.3mb 43f 41f
10:50pm 1.6ft 5s 5s 13 16 mph 1012.8mb 43f 41f
9:50pm 2ft 6s 5s 11
mph
1012.4mb 43f 42f
8:50pm 2.5ft 6s 5s 13 16 mph 1011.2mb 44f 44f
7:50pm 2.5ft 6s 5s 13 16 mph 1010.7mb 44f 44f
6:50pm 2.5ft 6s 5s 11 13 mph 1010mb 44f 45f
5:50pm 2.5ft 6s 5s 13 16 mph 1009.1mb 44f 45f
4:50pm 2.5ft 6s 5s 11
mph
1008mb 44f 45f
3:50pm 3ft 5s 5s 11 16 mph 1007.4mb 43f 47f
2:50pm 2.5ft 6s 5s 16 18 mph 1006.8mb 43f 47f
1:50pm 3ft 5s 4s 13 18 mph 1005.6mb 43f 45f
12:50pm 3.5ft 5s 4s 18 20 mph 1004.5mb 43f 45f
11:50am 3.5ft 5s 4s 18 22 mph 1005.2mb 43f 44f
10:50am 3.5ft 6s 4s 20 22 mph 1006.3mb 43f 44f
9:50am 4ft 5s 5s 18 22 mph 1007.3mb 43f 44f
8:50am 4ft 14s 5s 22 25 mph 1007.1mb 43f 44f
7:50am 3.5ft 12s 5s 18 22 mph 1007.1mb 43f 44f
6:50am 3.5ft 11s 5s 18 20 mph 1007.8mb 43f 44f
5:50am 4ft 12s 5s 16 18 mph 1008.8mb 43f 44f
4:50am 3.5ft 5s 4s 18 20 mph 1009.1mb 43f 45f
3:50am 3.5ft 12s 4s 20 25 mph 1009mb 44f 44f
2:50am 3ft 13s 4s 18 20 mph 1010.7mb 43f 44f
1:50am 2.5ft 13s 4s 20 22 mph 1011.7mb 43f 44f
12:50am 2.5ft 11s 4s 18
mph
1012.7mb 43f 44f
Sat 12/27 11:50pm 2ft 14s 7s 13 16 mph 1014.7mb 43f 44f
10:50pm 2ft 14s 8s 13 16 mph 1016.1mb 43f 44f
9:50pm 2.5ft 14s 9s 9
mph
1017.7mb 42f 43f
8:50pm 2.5ft 14s 8s 7
mph
1018.9mb 42f 43f
7:50pm 2.5ft 13s 8s 9
mph
1019.4mb 42f 43f
6:50pm 2.5ft 13s 9s 7
mph
1019mb 42f 44f
5:50pm 2.5ft 12s 8s 7
mph
1019mb 43f 45f
4:50pm 2.5ft 13s 8s 7 9 mph 1019.1mb 43f 45f
3:50pm 2.5ft 13s 8s 4 9 mph 1019mb 43f 44f
2:50pm 2.5ft 13s 6s 4 7 mph 1018.7mb 43f 44f
1:50pm 2.5ft 14s 6s 7 9 mph 1019.1mb 43f 44f
12:50pm 2.5ft 13s 6s 7 9 mph 1019.4mb 43f 43f
11:50am 2.5ft 15s 6s 2
mph
1019.9mb 43f 43f
10:50am 2.5ft 15s 6s  -  2 mph 1021mb 42f 43f
9:50am 2.5ft 15s 6s 7 9 mph 1021.6mb 42f 41f
8:50am 3ft 15s 7s 11 13 mph 1021.4mb 42f 40f
7:50am 3ft 14s 7s 11 13 mph 1020.8mb 42f 40f
6:50am 2.5ft 15s 7s 13 16 mph 1020.2mb 42f 40f
5:50am 3ft 14s 7s 13 16 mph 1019.2mb 42f 40f
4:50am 2.5ft 14s 7s 11 16 mph 1018.7mb 42f 40f
3:50am 2.5ft 13s 7s 11 16 mph 1018.5mb 42f 40f
2:50am 2.5ft 15s 6s 7 9 mph 1018.9mb 43f 39f
1:50am 2.5ft 15s 6s 16 18 mph 1018.1mb 43f 41f
12:50am 2.5ft 15s 5s 13 16 mph 1017.9mb 43f 41f
Fri 12/26 11:50pm 2.5ft 10s 4s 11 13 mph 1018.5mb 43f 41f
10:50pm 2.5ft 15s 5s 13 18 mph 1018.9mb 43f 42f
9:50pm 2.5ft 9s 5s 16 18 mph 1018.7mb 42f 42f
8:50pm 2.5ft 9s 5s 13 16 mph 1018.7mb 42f 43f
7:50pm 2.5ft 9s 5s 13 16 mph 1018.8mb 43f 43f
6:50pm 2ft 10s 6s 13 16 mph 1018.7mb 44f 44f
5:50pm 2.5ft 12s 5s 7
mph
1018.1mb 44f 45f
4:50pm 2.5ft 10s 5s 11 13 mph 1017.7mb 44f 46f
3:50pm 2.5ft 10s 5s 13 18 mph 1017.5mb 44f 46f
2:50pm 2.5ft 10s 5s 13 18 mph 1017mb 44f 47f
1:50pm 2.5ft 9s 5s 18 20 mph 1016.4mb 44f 46f
12:50pm 2.5ft 10s 5s 16 20 mph 1016.6mb 44f 46f
11:50am 3ft 9s 5s 13 16 mph 1016.8mb 43f 46f
10:50am 3.5ft 9s 5s 16 20 mph 1017.4mb 43f 45f
9:50am 3.5ft 9s 5s 13 18 mph 1018mb 42f 43f
8:50am 3.5ft 9s 5s 18 20 mph 1017.3mb 42f 42f
7:50am 3.5ft 9s 5s 18 20 mph 1016.5mb 42f 42f
6:50am 3ft 8s 5s 18 22 mph 1015.7mb 43f 42f
5:50am 3ft 9s 5s 18 20 mph 1015.1mb 44f 43f
4:50am 3ft 10s 5s 18 22 mph 1014.1mb 44f 43f
3:50am 3ft 9s 4s 20 25 mph 1012.8mb 44f 43f
2:50am 3.5ft 9s 5s 18 22 mph 1013.1mb 44f 43f
1:50am 3.5ft 9s 5s 20 25 mph 1012.3mb 44f 44f
12:50am 4ft 9s 5s 20 22 mph 1011.4mb 44f 44f
Thu 12/25 11:50pm 4.5ft 10s 5s 20 22 mph 1010.5mb 44f 44f
10:50pm 4ft 9s 5s 22 27 mph 1009.9mb 43f 45f
9:50pm 4.5ft 9s 5s 20 25 mph 1009.6mb 43f 45f
8:50pm 4.5ft 7s 5s 25 31 mph 1008.2mb 42f 46f
7:50pm 4ft 5s 5s 25 29 mph 1006.9mb 42f 46f
6:50pm 3.5ft 7s 5s 20 29 mph 1005.9mb 42f 47f
5:50pm 3.5ft 7s 5s 16 18 mph 1004.7mb 43f 46f
4:50pm 4.5ft 7s 5s 25 34 mph 1003.2mb 43f 48f
3:50pm 4.5ft 7s 5s 25 29 mph 1001.8mb 43f 49f
2:50pm 4.5ft 7s 5s 27 36 mph 1000.1mb 43f 49f
1:50pm 5ft 7s 5s 27 36 mph 998.8mb 44f 49f
12:50pm 5.5ft 7s 6s 20 27 mph 998mb 44f 48f
11:50am 6ft 8s 6s 20 25 mph 997.8mb 44f 47f
10:50am 6.5ft 7s 6s 13 16 mph 997.8mb 44f 46f
9:50am 6ft 8s 6s 16 20 mph 997.2mb 43f 47f
8:50am 6ft 7s 6s 20 27 mph 997mb 43f 47f